Time;durP1;ratioP1;P1;durP2;ratioP2;P2;SDS_P1;SDS_P2;PMS_P1;PMS_P2;Temp;Humidity;BMP_temperature;BMP_pressure;BME280_temperature;BME280_humidity;BME280_pressure;Samples;Min_cycle;Max_cycle;Signal;HPM_P1;HPM_P2
2022/09/27 00:05:46;;;;;;;5.15;4.70;;;;;;;19.21;64.78;100185.91;5055058;27;20406;-69
2022/09/27 00:08:13;;;;;;;5.07;4.57;;;;;;;19.23;64.54;100183.78;5062802;28;20451;-69
2022/09/27 00:10:39;;;;;;;5.68;5.18;;;;;;;19.23;64.70;100173.03;5044059;28;20453;-69
2022/09/27 00:15:20;;;;;;;5.60;5.20;;;;;;;19.15;64.89;100166.19;5069123;27;20403;-68
2022/09/27 00:17:46;;;;;;;6.80;6.20;;;;;;;19.15;64.89;100168.88;5046979;28;20397;-69
2022/09/27 00:20:11;;;;;;;6.53;5.93;;;;;;;19.17;64.88;100177.50;5047175;28;20382;-69
2022/09/27 00:22:37;;;;;;;6.63;6.03;;;;;;;19.25;64.92;100176.31;5046420;28;20374;-69
2022/09/27 00:25:28;;;;;;;6.88;6.25;;;;;;;19.28;64.90;100170.44;5072729;27;20465;-68
2022/09/27 00:27:54;;;;;;;6.63;6.03;;;;;;;19.32;64.93;100174.31;5046726;28;20401;-69
2022/09/27 00:30:19;;;;;;;6.90;6.20;;;;;;;19.29;64.72;100164.81;5047228;28;20800;-69
2022/09/27 00:32:45;;;;;;;6.93;6.20;;;;;;;19.33;64.87;100161.66;5046745;28;20767;-69
2022/09/27 00:35:11;;;;;;;6.80;6.10;;;;;;;19.32;64.82;100158.19;5047174;28;20397;-69
2022/09/27 00:37:36;;;;;;;7.03;6.43;;;;;;;19.25;64.92;100144.88;5046389;28;20396;-69
2022/09/27 00:40:02;;;;;;;7.13;6.53;;;;;;;19.27;64.79;100141.97;5046926;28;20409;-68
2022/09/27 00:42:27;;;;;;;7.13;6.43;;;;;;;19.27;64.72;100123.94;5046462;28;20382;-69
2022/09/27 00:45:00;;;;;;;6.78;6.18;;;;;;;19.25;64.75;100117.19;5045899;28;20505;-68
2022/09/27 00:48:05;;;;;;;6.72;6.13;;;;;;;19.24;64.57;100119.06;5053880;27;20404;-69
2022/09/27 00:50:41;;;;;;;7.07;6.47;;;;;;;19.26;64.52;100126.88;5066740;28;20486;-69
2022/09/27 00:53:21;;;;;;;6.37;5.77;;;;;;;19.24;64.64;100120.94;5049446;28;20883;-69
2022/09/27 00:55:53;;;;;;;6.53;5.93;;;;;;;19.28;64.73;100128.28;5046878;28;20382;-69
2022/09/27 00:59:22;;;;;;;6.90;6.30;;;;;;;19.36;64.39;100132.44;5054033;28;20410;-69
2022/09/27 01:01:48;;;;;;;7.15;6.55;;;;;;;19.33;64.33;100122.16;5046768;28;20393;-68
2022/09/27 01:04:17;;;;;;;6.90;6.30;;;;;;;19.27;64.44;100115.88;5046956;28;20440;-68
2022/09/27 01:06:42;;;;;;;7.13;6.47;;;;;;;19.29;64.56;100112.97;5029970;28;20466;-68
2022/09/27 01:09:09;;;;;;;6.93;6.20;;;;;;;19.31;64.60;100110.84;5035664;28;20473;-68
2022/09/27 01:11:38;;;;;;;6.60;6.00;;;;;;;19.29;64.54;100115.66;5032347;28;20394;-68
2022/09/27 01:16:43;;;;;;;6.90;6.20;;;;;;;19.34;64.41;100126.50;5054545;27;20413;-68
2022/09/27 01:20:32;;;;;;;6.32;5.82;;;;;;;19.31;64.44;100121.59;5054543;27;20411;-68
2022/09/27 01:24:26;;;;;;;5.88;5.28;;;;;;;19.31;64.36;100121.59;5054754;27;20408;-69
2022/09/27 01:27:43;;;;;;;5.68;5.20;;;;;;;19.37;64.42;100119.81;5066664;28;20932;-68
2022/09/27 01:30:21;;;;;;;6.38;5.78;;;;;;;19.35;64.35;100103.13;5043637;28;20428;-69
2022/09/27 01:33:16;;;;;;;6.20;5.70;;;;;;;19.35;64.32;100103.91;5040159;28;20383;-69
2022/09/27 01:36:12;;;;;;;5.93;5.22;;;;;;;19.33;64.27;100095.28;5052729;28;20389;-69
2022/09/27 01:38:40;;;;;;;5.47;4.97;;;;;;;19.30;64.31;100093.06;5066330;28;20376;-69
2022/09/27 01:41:12;;;;;;;6.22;5.68;;;;;;;19.31;64.40;100092.03;5052548;28;20388;-69
2022/09/27 01:43:48;;;;;;;6.10;5.53;;;;;;;19.36;64.45;100100.19;5066522;28;20415;-69
2022/09/27 01:46:26;;;;;;;5.90;5.35;;;;;;;19.40;64.31;100105.88;5052342;28;20392;-68
2022/09/27 01:48:55;;;;;;;5.85;5.35;;;;;;;19.40;64.43;100105.88;5053102;28;20456;-68
2022/09/27 01:53:50;;;;;;;5.43;5.03;;;;;;;19.42;64.29;100090.34;5048274;28;20746;-69
2022/09/27 01:56:25;;;;;;;5.90;5.30;;;;;;;19.43;64.26;100083.91;5026435;28;20816;-69
2022/09/27 01:59:03;;;;;;;5.63;5.13;;;;;;;19.42;64.20;100084.97;5026783;28;20387;-68
2022/09/27 02:01:32;;;;;;;5.63;5.13;;;;;;;19.37;64.26;100076.81;5026663;28;20458;-69
2022/09/27 02:05:56;;;;;;;6.18;5.57;;;;;;;19.43;64.19;100070.47;5073657;27;20407;-69
2022/09/27 02:10:28;;;;;;;5.88;5.38;;;;;;;19.35;64.26;100052.06;5052222;28;20415;-69
2022/09/27 02:13:26;;;;;;;5.65;5.15;;;;;;;19.28;64.34;100049.50;5012744;28;20413;-69
2022/09/27 02:16:02;;;;;;;7.43;5.50;;;;;;;19.29;64.55;100049.28;5015691;28;20396;-69
2022/09/27 02:18:52;;;;;;;6.00;5.40;;;;;;;19.26;64.22;100046.25;5011577;28;20407;-68
2022/09/27 02:21:19;;;;;;;6.57;5.57;;;;;;;19.23;64.44;100044.88;5026758;28;20403;-69
2022/09/27 02:23:53;;;;;;;5.80;5.30;;;;;;;19.22;64.51;100045.13;5013143;28;20393;-69
2022/09/27 02:26:19;;;;;;;6.07;5.53;;;;;;;19.17;64.66;100034.28;5017786;28;20451;-69
2022/09/27 02:28:48;;;;;;;6.20;5.60;;;;;;;19.16;64.97;100032.66;5008468;28;20421;-69
2022/09/27 02:32:48;;;;;;;6.50;5.93;;;;;;;19.10;64.86;100027.22;5071799;27;20761;-69
2022/09/27 02:36:52;;;;;;;6.65;6.13;;;;;;;19.06;65.17;100019.88;5022129;28;20471;-69
2022/09/27 02:39:18;;;;;;;7.38;6.68;;;;;;;19.06;65.22;100030.63;5007210;28;20980;-69
2022/09/27 02:41:44;;;;;;;6.25;5.65;;;;;;;19.08;65.28;100033.88;5007169;28;20385;-69
2022/09/27 02:44:13;;;;;;;6.60;6.00;;;;;;;19.07;65.21;100038.44;5007067;28;20439;-69
2022/09/27 02:47:08;;;;;;;6.95;6.32;;;;;;;19.03;65.20;100044.53;5006451;28;20404;-69
2022/09/27 02:51:03;;;;;;;6.80;6.20;;;;;;;19.00;65.28;100024.34;5117717;27;20454;-69
2022/09/27 02:56:01;;;;;;;7.07;6.47;;;;;;;19.12;65.17;100037.69;5066703;28;20461;-70
2022/09/27 02:58:33;;;;;;;7.10;6.50;;;;;;;19.15;65.10;100039.09;5036648;28;20395;-69
2022/09/27 03:01:22;;;;;;;7.07;6.47;;;;;;;19.17;65.03;100035.09;5046566;28;20748;-69
2022/09/27 03:03:54;;;;;;;7.32;6.72;;;;;;;19.18;65.15;100033.25;5040424;28;20378;-69
2022/09/27 03:06:22;;;;;;;7.50;6.80;;;;;;;19.16;65.17;100028.13;5046334;28;20902;-69
2022/09/27 03:08:48;;;;;;;7.53;6.83;;;;;;;19.19;65.18;100021.44;5040687;28;20388;-70
2022/09/27 03:12:07;;;;;;;7.47;6.78;;;;;;;19.14;65.11;100008.75;5060642;28;20461;-69
2022/09/27 03:14:33;;;;;;;7.70;6.90;;;;;;;19.17;65.08;100016.28;5052155;28;20397;-69
2022/09/27 03:18:03;;;;;;;7.45;6.65;;;;;;;19.17;65.20;100012.81;5059256;28;20402;-69
2022/09/27 03:22:20;;;;;;;7.28;6.57;;;;;;;19.21;64.80;100016.63;5074330;27;2074594;-69
2022/09/27 03:24:46;;;;;;;7.27;6.50;;;;;;;19.20;65.10;100017.69;5136240;27;20411;-69
2022/09/27 03:27:11;;;;;;;7.10;6.50;;;;;;;19.22;65.02;100015.56;5147216;27;21259;-69
2022/09/27 03:29:37;;;;;;;7.38;6.68;;;;;;;19.22;64.91;100008.31;5147776;27;20396;-70
2022/09/27 03:32:03;;;;;;;6.90;6.30;;;;;;;19.21;64.95;99998.66;5147244;27;20471;-69
2022/09/27 03:34:29;;;;;;;7.32;6.68;;;;;;;19.20;64.99;99993.50;5137162;27;20448;-70
2022/09/27 03:36:54;;;;;;;7.77;7.07;;;;;;;19.15;65.11;99988.06;5140845;27;20796;-69
2022/09/27 03:39:20;;;;;;;7.53;6.82;;;;;;;19.18;64.91;99996.44;5133632;27;20878;-70
2022/09/27 03:41:46;;;;;;;7.68;6.88;;;;;;;19.20;64.93;99993.50;5137206;27;20999;-70
2022/09/27 03:44:11;;;;;;;7.13;6.43;;;;;;;19.18;64.95;99987.56;5126170;27;20390;-69
2022/09/27 03:49:48;;;;;;;7.72;6.97;;;;;;;19.31;64.84;99983.75;5054141;28;20411;-70
2022/09/27 03:52:14;;;;;;;7.80;7.00;;;;;;;19.28;64.79;99980.50;5016842;28;20937;-70
2022/09/27 03:56:25;;;;;;;7.15;6.45;;;;;;;19.28;64.78;99982.34;5036316;27;2074582;-71
2022/09/27 03:58:50;;;;;;;7.50;6.80;;;;;;;19.28;64.92;99993.94;5109992;28;20408;-70
2022/09/27 04:01:16;;;;;;;7.03;6.43;;;;;;;19.29;64.93;100000.91;5101300;28;20387;-70
2022/09/27 04:07:48;;;;;;;7.28;6.65;;;;;;;19.34;64.76;99988.59;5072046;27;20412;-69
2022/09/27 04:10:14;;;;;;;7.55;6.85;;;;;;;19.36;64.66;99994.56;5067252;28;20396;-69
2022/09/27 04:12:40;;;;;;;8.85;7.50;;;;;;;19.37;64.65;99990.81;5067307;28;20388;-69
2022/09/27 04:15:07;;;;;;;7.70;6.60;;;;;;;19.33;64.59;99971.66;5047361;28;20408;-70
2022/09/27 04:17:33;;;;;;;7.57;6.90;;;;;;;19.31;64.85;99975.69;5050569;28;20394;-69
2022/09/27 04:19:59;;;;;;;7.40;6.70;;;;;;;19.32;64.76;99961.16;5060196;28;20387;-70
2022/09/27 04:22:24;;;;;;;7.97;7.25;;;;;;;19.31;64.98;99954.97;5065423;28;20380;-71
2022/09/27 04:24:50;;;;;;;8.00;7.30;;;;;;;19.28;65.06;99950.09;5056992;28;20950;-71
2022/09/27 04:27:16;;;;;;;7.35;6.65;;;;;;;19.29;64.97;99944.47;5062915;28;20420;-70
2022/09/27 04:29:44;;;;;;;7.80;7.10;;;;;;;19.29;64.78;99939.09;5057256;28;20891;-71
2022/09/27 04:32:10;;;;;;;7.50;6.80;;;;;;;19.30;64.77;99937.22;5046330;28;20465;-70
2022/09/27 04:37:29;;;;;;;8.57;7.78;;;;;;;19.29;65.04;99925.66;5053792;28;20433;-70
2022/09/27 04:39:54;;;;;;;8.53;7.73;;;;;;;19.31;65.08;99928.13;5065374;28;20380;-71
2022/09/27 04:42:20;;;;;;;8.48;7.78;;;;;;;19.33;65.02;99925.19;5062970;28;20372;-71
2022/09/27 04:44:46;;;;;;;10.30;8.40;;;;;;;19.27;65.10;99924.31;5066220;28;20392;-70
2022/09/27 04:47:20;;;;;;;8.65;7.85;;;;;;;19.31;64.95;99928.13;5085804;27;20408;-70
2022/09/27 04:49:46;;;;;;;8.23;7.53;;;;;;;19.27;65.17;99940.41;5080369;28;20403;-71
2022/09/27 04:52:14;;;;;;;9.27;8.10;;;;;;;19.26;65.25;99930.72;5080702;28;20472;-71
2022/09/27 04:54:40;;;;;;;8.60;7.70;;;;;;;19.28;65.12;99929.44;5078187;28;20382;-71
2022/09/27 04:57:06;;;;;;;8.88;8.07;;;;;;;19.24;65.00;99920.22;5072003;28;20386;-72
2022/09/27 04:59:31;;;;;;;9.02;8.23;;;;;;;19.23;65.22;99923.13;5086396;28;20390;-72
2022/09/27 05:02:00;;;;;;;9.20;8.30;;;;;;;19.22;65.22;99926.91;5086212;28;20931;-73
2022/09/27 05:04:26;;;;;;;9.10;8.20;;;;;;;19.21;65.28;99923.41;5086599;28;20382;-74
2022/09/27 05:06:52;;;;;;;9.23;8.38;;;;;;;19.29;65.31;99936.41;5086378;28;20417;-73
2022/09/27 05:09:18;;;;;;;8.32;7.53;;;;;;;19.29;65.28;99939.09;5086178;28;20387;-73
2022/09/27 05:11:43;;;;;;;8.53;7.70;;;;;;;19.32;65.10;99947.72;5077112;28;20882;-72
2022/09/27 05:14:09;;;;;;;8.60;7.80;;;;;;;19.34;65.11;99942.91;5081288;28;20389;-73
2022/09/27 05:16:37;;;;;;;9.13;8.33;;;;;;;19.37;64.89;99939.75;5079330;28;20433;-72
2022/09/27 05:19:03;;;;;;;10.15;9.07;;;;;;;19.39;64.95;99938.44;5071489;28;20370;-72
2022/09/27 05:21:30;;;;;;;9.23;8.33;;;;;;;19.44;65.24;99938.50;5086358;28;20894;-73
2022/09/27 05:23:56;;;;;;;9.00;8.20;;;;;;;19.44;65.10;99945.75;5067967;28;20391;-72
2022/09/27 05:26:21;;;;;;;8.40;7.60;;;;;;;19.39;64.94;99937.63;5071242;28;20407;-72
2022/09/27 05:28:47;;;;;;;8.40;7.50;;;;;;;19.37;64.78;99931.69;5075736;28;20870;-73
2022/09/27 05:31:13;;;;;;;8.77;7.97;;;;;;;19.36;64.79;99938.94;5086023;28;20387;-73
2022/09/27 05:33:40;;;;;;;9.50;8.13;;;;;;;19.41;64.76;99940.88;5068120;28;20395;-72
2022/09/27 05:36:05;;;;;;;9.20;8.40;;;;;;;19.36;65.11;99941.63;5082819;28;20407;-72
2022/09/27 05:38:31;;;;;;;8.63;7.82;;;;;;;19.31;65.33;99936.16;5068247;28;20388;-72
2022/09/27 05:40:57;;;;;;;9.13;8.07;;;;;;;19.35;65.53;99936.50;5069112;28;20386;-72
2022/09/27 05:43:23;;;;;;;9.93;8.70;;;;;;;19.42;65.51;99932.56;5085810;28;20383;-72
2022/09/27 05:45:51;;;;;;;9.15;8.25;;;;;;;19.50;65.31;99931.34;5085145;28;21005;-72
2022/09/27 05:48:17;;;;;;;9.30;8.00;;;;;;;19.55;65.17;99942.13;5064908;28;20746;-72
2022/09/27 05:50:43;;;;;;;9.02;8.13;;;;;;;19.60;65.21;99942.22;5067227;28;20381;-72
2022/09/27 05:53:09;;;;;;;8.90;8.00;;;;;;;19.70;65.24;99940.72;5066394;28;20387;-72
2022/09/27 05:55:35;;;;;;;9.50;8.23;;;;;;;19.68;65.01;99941.00;5066172;28;20377;-72
2022/09/27 05:58:06;;;;;;;9.23;8.43;;;;;;;19.70;65.17;99948.78;5057258;28;20378;-71
2022/09/27 06:00:32;;;;;;;7.78;7.07;;;;;;;19.68;64.73;99947.16;5052291;28;20446;-72
2022/09/27 06:03:03;;;;;;;8.10;7.40;;;;;;;19.72;64.84;99946.69;5051796;28;20375;-72
2022/09/27 06:05:34;;;;;;;8.90;8.02;;;;;;;19.79;64.95;99948.16;5050907;28;20416;-73
2022/09/27 06:08:02;;;;;;;8.25;7.40;;;;;;;19.78;64.98;99949.19;5056473;28;20419;-73
2022/09/27 06:10:29;;;;;;;9.20;7.90;;;;;;;19.75;65.06;99940.81;5071990;28;20386;-73
2022/09/27 06:13:06;;;;;;;8.07;7.38;;;;;;;19.76;65.18;99947.84;5056841;28;20400;-73
2022/09/27 06:15:33;;;;;;;8.48;7.68;;;;;;;19.81;65.07;99943.31;5052690;28;20897;-73
2022/09/27 06:18:16;;;;;;;7.85;7.00;;;;;;;19.79;64.74;99939.25;5055596;28;20392;-73
2022/09/27 06:23:08;;;;;;;9.90;7.72;;;;;;;19.74;65.19;99941.91;5075510;28;20921;-73
2022/09/27 06:25:37;;;;;;;8.10;7.32;;;;;;;19.83;64.87;99951.97;5062683;28;20390;-73
2022/09/27 06:28:03;;;;;;;7.78;7.00;;;;;;;19.82;64.87;99949.50;5047188;28;20382;-74
2022/09/27 06:30:30;;;;;;;8.52;7.45;;;;;;;19.80;64.90;99954.31;5059947;28;20809;-73
2022/09/27 06:32:59;;;;;;;8.20;7.20;;;;;;;19.85;64.70;99954.41;5053408;28;20793;-74
2022/09/27 06:35:26;;;;;;;8.07;6.90;;;;;;;19.88;64.57;99942.31;5066308;28;20406;-74
2022/09/27 06:37:52;;;;;;;8.65;7.43;;;;;;;19.92;64.42;99935.41;5063903;28;20419;-73
2022/09/27 06:41:56;;;;;;;8.13;6.53;;;;;;;20.11;63.89;99941.25;5090386;27;20822;-73
2022/09/27 06:44:23;;;;;;;7.30;6.60;;;;;;;20.19;63.75;99936.22;5086384;28;20826;-73
2022/09/27 06:46:49;;;;;;;9.50;6.90;;;;;;;20.23;63.69;99937.34;5086514;28;20386;-73
2022/09/27 06:49:15;;;;;;;7.40;6.70;;;;;;;20.23;63.68;99942.72;5068807;28;20384;-68
2022/09/27 06:51:41;;;;;;;7.97;6.50;;;;;;;20.13;63.81;99945.31;5077470;28;20396;-68
2022/09/27 06:54:07;;;;;;;7.25;6.55;;;;;;;20.21;63.34;99939.47;5086133;28;20382;-69
2022/09/27 06:56:33;;;;;;;7.77;6.97;;;;;;;20.33;63.19;99933.13;5078434;28;20382;-68
2022/09/27 07:01:44;;;;;;;10.18;7.05;;;;;;;20.61;62.35;99938.28;5079329;28;20545;-68
2022/09/27 07:04:11;;;;;;;8.02;7.28;;;;;;;20.59;62.29;99924.22;5073010;28;20384;-68
2022/09/27 07:06:36;;;;;;;8.37;7.23;;;;;;;20.62;61.98;99933.72;5080117;28;20384;-69
2022/09/27 07:09:02;;;;;;;8.33;7.63;;;;;;;20.56;62.16;99932.84;5080284;28;20900;-69
2022/09/27 07:11:28;;;;;;;8.35;6.93;;;;;;;20.65;62.10;99930.50;5079880;28;20774;-69
2022/09/27 07:13:55;;;;;;;8.05;7.20;;;;;;;20.78;61.82;99934.69;5079816;28;20370;-68
2022/09/27 07:16:21;;;;;;;9.80;7.80;;;;;;;20.79;61.31;99938.97;5081589;28;20382;-69
2022/09/27 07:18:48;;;;;;;7.93;7.23;;;;;;;20.72;61.40;99930.28;5071802;28;20505;-68
2022/09/27 07:22:26;;;;;;;7.85;7.13;;;;;;;20.73;61.31;99938.13;5074567;28;20456;-69
2022/09/27 07:24:51;;;;;;;7.85;7.15;;;;;;;20.66;61.17;99942.91;5041437;28;20405;-69
2022/09/27 07:27:17;;;;;;;8.77;7.33;;;;;;;20.59;61.48;99947.66;5046462;28;20384;-69
2022/09/27 07:29:43;;;;;;;7.90;6.97;;;;;;;20.60;61.58;99949.31;5046813;28;20473;-68
2022/09/27 07:32:08;;;;;;;7.50;6.75;;;;;;;20.62;61.19;99949.88;5036205;28;20411;-69
2022/09/27 07:34:34;;;;;;;7.63;6.93;;;;;;;20.52;61.36;99942.47;5028990;28;20379;-68
2022/09/27 07:37:00;;;;;;;8.07;7.35;;;;;;;20.51;61.80;99935.47;5038311;28;20517;-68
2022/09/27 07:39:25;;;;;;;8.10;7.30;;;;;;;20.57;61.39;99936.34;5040897;28;20385;-68
2022/09/27 07:41:51;;;;;;;13.70;7.60;;;;;;;20.54;61.85;99934.94;5046169;28;20421;-68
2022/09/27 07:44:17;;;;;;;7.53;6.85;;;;;;;20.46;62.04;99937.31;5042407;28;20887;-68
2022/09/27 07:46:42;;;;;;;8.53;7.70;;;;;;;20.46;62.23;99932.75;5026512;28;20745;-68
2022/09/27 07:49:08;;;;;;;9.48;7.53;;;;;;;20.63;61.78;99940.72;5026599;28;20394;-68
2022/09/27 07:51:34;;;;;;;8.10;7.30;;;;;;;20.75;61.62;99940.56;5026496;28;20762;-68
2022/09/27 07:54:02;;;;;;;8.57;7.40;;;;;;;20.78;61.53;99938.19;5040208;28;20381;-68
2022/09/27 07:56:28;;;;;;;8.13;7.32;;;;;;;20.80;61.48;99932.53;5026603;28;20892;-68
2022/09/27 07:58:54;;;;;;;8.25;7.43;;;;;;;20.79;61.40;99944.38;5038308;28;20472;-68
2022/09/27 08:01:19;;;;;;;8.27;7.47;;;;;;;20.66;61.62;99924.06;5041629;28;20506;-69
2022/09/27 08:03:45;;;;;;;8.02;7.32;;;;;;;20.65;61.55;99921.63;5026289;28;20467;-68
2022/09/27 08:06:11;;;;;;;7.72;7.03;;;;;;;20.61;61.72;99924.81;5028425;28;20742;-68
2022/09/27 08:08:37;;;;;;;8.23;7.43;;;;;;;20.59;61.39;99920.72;5045822;28;20382;-69
2022/09/27 08:11:14;;;;;;;8.18;7.47;;;;;;;20.59;61.56;99920.72;5045187;28;20913;-68
2022/09/27 08:13:43;;;;;;;7.85;7.03;;;;;;;20.67;61.50;99914.09;5026148;28;22005;-68
2022/09/27 08:16:10;;;;;;;8.77;7.88;;;;;;;20.80;61.51;99914.47;5039606;28;20409;-69
2022/09/27 08:18:35;;;;;;;8.93;8.03;;;;;;;20.91;61.36;99906.50;5044363;28;20398;-69
2022/09/27 08:21:01;;;;;;;8.80;7.90;;;;;;;20.90;61.34;99913.75;5044272;28;20425;-68
2022/09/27 08:23:27;;;;;;;7.65;7.05;;;;;;;20.79;61.28;99918.22;5045455;28;20896;-68
2022/09/27 08:25:53;;;;;;;8.35;7.53;;;;;;;20.75;61.36;99909.06;5025381;28;20739;-68
2022/09/27 08:28:37;;;;;;;7.95;7.15;;;;;;;20.76;61.37;99907.16;5056465;27;20919;-68
2022/09/27 08:31:03;;;;;;;7.82;6.50;;;;;;;20.72;61.08;99914.13;5046913;28;20448;-68
2022/09/27 08:33:29;;;;;;;7.73;6.93;;;;;;;20.78;60.78;99903.16;5046909;28;20481;-69
2022/09/27 08:35:54;;;;;;;7.15;6.30;;;;;;;20.81;60.62;99894.56;5046280;28;20381;-68
2022/09/27 08:38:21;;;;;;;6.93;6.23;;;;;;;20.88;60.48;99898.91;5046447;28;20891;-68
2022/09/27 08:40:50;;;;;;;8.38;6.88;;;;;;;20.94;60.35;99904.09;5046332;28;20390;-68
2022/09/27 08:43:22;;;;;;;9.23;7.80;;;;;;;20.95;60.71;99894.91;5046566;28;20377;-68
2022/09/27 08:46:03;;;;;;;6.97;6.28;;;;;;;20.97;60.31;99900.06;5046023;28;20404;-68
2022/09/27 08:48:30;;;;;;;8.00;6.73;;;;;;;20.97;60.21;99892.78;5046150;28;20417;-68
2022/09/27 08:50:56;;;;;;;8.20;7.18;;;;;;;20.99;60.30;99887.97;5046254;28;20382;-68
2022/09/27 08:53:32;;;;;;;7.47;6.78;;;;;;;21.12;60.25;99893.94;5046087;28;20399;-69
2022/09/27 08:56:01;;;;;;;7.78;7.05;;;;;;;21.20;60.21;99885.38;5044878;28;20439;-68
2022/09/27 08:58:42;;;;;;;6.93;6.22;;;;;;;21.24;60.10;99893.75;5040530;28;20390;-68
2022/09/27 09:01:14;;;;;;;11.82;7.57;;;;;;;21.23;60.11;99884.88;5044679;28;20415;-69
2022/09/27 09:03:47;;;;;;;8.55;6.90;;;;;;;21.19;59.99;99881.88;5033645;28;20389;-68
2022/09/27 09:06:24;;;;;;;8.00;7.30;;;;;;;21.19;59.98;99884.59;5045488;28;20396;-69
2022/09/27 09:08:52;;;;;;;7.35;6.68;;;;;;;21.27;60.02;99885.16;5045987;28;20516;-68
2022/09/27 09:14:54;;;;;;;7.80;7.00;;;;;;;21.43;59.64;99886.03;5043555;28;20393;-68
2022/09/27 09:17:45;;;;;;;9.30;8.27;;;;;;;21.35;59.77;99887.34;5023270;28;20405;-69
2022/09/27 09:20:26;;;;;;;9.02;8.18;;;;;;;21.43;59.67;99886.03;5045303;28;20400;-69
2022/09/27 09:23:20;;;;;;;9.05;8.15;;;;;;;21.47;59.73;99871.81;5045172;28;20947;-69
2022/09/27 09:26:15;;;;;;;10.20;8.82;;;;;;;21.56;59.67;99877.50;5044076;28;20409;-68
2022/09/27 09:29:06;;;;;;;10.90;9.00;;;;;;;21.55;59.34;99859.69;5025243;28;20434;-68
2022/09/27 09:31:45;;;;;;;9.23;8.35;;;;;;;21.53;59.30;99854.56;5040202;28;20892;-68
2022/09/27 09:34:16;;;;;;;9.27;8.38;;;;;;;21.52;59.04;99852.94;5045173;28;20799;-68
2022/09/27 09:37:03;;;;;;;11.80;8.73;;;;;;;21.65;58.90;99861.63;5045092;28;20389;-68
2022/09/27 09:39:37;;;;;;;11.07;8.30;;;;;;;21.72;58.79;99854.09;5034887;28;20480;-68
2022/09/27 09:42:03;;;;;;;9.00;8.10;;;;;;;21.73;58.47;99869.19;5032279;28;20381;-68
2022/09/27 09:44:43;;;;;;;9.07;8.10;;;;;;;21.71;58.68;99882.94;5030808;28;20382;-68
2022/09/27 09:47:45;;;;;;;14.00;10.73;;;;;;;21.67;58.94;99881.84;5030222;28;20511;-69
2022/09/27 09:50:20;;;;;;;10.50;9.40;;;;;;;21.65;58.86;99875.13;5028490;28;20413;-69
2022/09/27 09:52:51;;;;;;;10.25;9.23;;;;;;;21.60;58.84;99875.91;5033701;28;20403;-68
2022/09/27 09:56:31;;;;;;;10.23;8.82;;;;;;;21.63;58.72;99878.06;5071956;28;20408;-68
2022/09/27 09:59:01;;;;;;;10.68;9.23;;;;;;;21.69;58.90;99868.91;5060099;28;20411;-68
2022/09/27 10:01:41;;;;;;;9.60;8.40;;;;;;;21.65;58.91;99862.44;5058605;28;20442;-68
2022/09/27 10:04:19;;;;;;;8.70;7.82;;;;;;;21.69;58.47;99855.44;5040727;28;20380;-68
2022/09/27 10:06:45;;;;;;;9.30;8.40;;;;;;;21.71;58.55;99866.75;5042719;28;20426;-69
2022/09/27 10:09:14;;;;;;;8.98;8.07;;;;;;;21.65;58.64;99864.31;5028494;28;20384;-69
2022/09/27 10:11:42;;;;;;;11.50;10.10;;;;;;;21.65;59.18;99858.94;5048521;28;20395;-69
2022/09/27 10:14:17;;;;;;;9.73;8.82;;;;;;;21.63;59.48;99861.91;5032997;28;20783;-68
2022/09/27 10:16:47;;;;;;;10.13;8.87;;;;;;;21.62;59.43;99860.25;5029504;28;20441;-67
2022/09/27 10:19:16;;;;;;;12.40;9.50;;;;;;;21.57;59.67;99858.38;5028963;28;20403;-68
2022/09/27 10:21:44;;;;;;;10.80;9.50;;;;;;;21.54;59.86;99852.69;5027786;28;20498;-68
2022/09/27 10:24:15;;;;;;;10.80;9.70;;;;;;;21.56;59.33;99854.03;5034959;28;21054;-68
2022/09/27 10:28:51;;;;;;;10.20;9.30;;;;;;;21.50;59.57;99854.28;5066390;27;20407;-69
2022/09/27 10:31:19;;;;;;;10.95;9.52;;;;;;;21.47;60.04;99854.81;5061578;28;20398;-69
2022/09/27 10:33:58;;;;;;;11.93;10.82;;;;;;;21.51;60.42;99859.41;5063501;28;20415;-68
2022/09/27 10:36:35;;;;;;;12.82;11.63;;;;;;;21.56;60.97;99866.72;5064167;28;20463;-68
2022/09/27 10:39:04;;;;;;;12.87;10.97;;;;;;;21.55;60.59;99865.91;5075634;28;20383;-69
2022/09/27 10:41:30;;;;;;;11.35;10.25;;;;;;;21.56;61.13;99864.03;5062638;28;20398;-68
2022/09/27 10:43:56;;;;;;;11.47;10.13;;;;;;;21.58;61.06;99859.16;5063917;28;20891;-68
2022/09/27 10:46:26;;;;;;;11.77;9.95;;;;;;;21.57;61.60;99854.84;5068328;28;20512;-68
2022/09/27 10:49:18;;;;;;;11.15;10.05;;;;;;;21.59;61.32;99850.03;5053455;28;20856;-68
2022/09/27 10:51:48;;;;;;;10.98;9.93;;;;;;;21.67;61.41;99837.91;5062258;28;20767;-68
2022/09/27 10:54:23;;;;;;;10.82;9.70;;;;;;;21.78;61.11;99847.63;5052671;28;20396;-68
2022/09/27 10:57:14;;;;;;;10.70;8.90;;;;;;;21.81;61.03;99847.13;5050946;28;20419;-68
2022/09/27 10:59:42;;;;;;;10.98;9.88;;;;;;;21.82;61.22;99834.44;5049009;28;20386;-68
2022/09/27 11:02:31;;;;;;;10.27;9.32;;;;;;;21.76;60.81;99834.41;5046236;28;20484;-68
2022/09/27 11:05:12;;;;;;;11.18;10.10;;;;;;;21.67;61.21;99832.50;5045907;28;20389;-68
2022/09/27 11:07:51;;;;;;;10.70;9.70;;;;;;;21.73;61.39;99837.66;5045586;28;20452;-68
2022/09/27 11:11:05;;;;;;;11.23;10.18;;;;;;;21.82;61.15;99837.13;5059368;28;20401;-68
2022/09/27 11:13:33;;;;;;;11.25;10.15;;;;;;;21.83;60.83;99836.06;5031506;28;21354;-68
2022/09/27 11:16:27;;;;;;;11.13;10.13;;;;;;;21.87;61.17;99837.94;5045504;28;20787;-68
2022/09/27 11:19:52;;;;;;;12.15;10.95;;;;;;;21.86;60.91;99827.41;5078269;27;20473;-68
2022/09/27 11:22:26;;;;;;;11.90;10.70;;;;;;;21.89;60.99;99827.69;5066787;28;20398;-68
2022/09/27 11:25:11;;;;;;;11.50;10.33;;;;;;;21.88;60.55;99814.50;5055149;28;20397;-68
2022/09/27 11:27:50;;;;;;;11.82;10.63;;;;;;;21.93;60.96;99818.00;5032744;28;20844;-69
2022/09/27 11:30:21;;;;;;;10.52;9.43;;;;;;;21.95;60.36;99806.94;5060313;28;20395;-68
2022/09/27 11:33:20;;;;;;;11.23;10.13;;;;;;;21.99;59.96;99801.81;5046751;28;20394;-68
2022/09/27 11:37:18;;;;;;;10.18;9.18;;;;;;;22.03;59.62;99797.50;5053857;28;20405;-68
2022/09/27 11:40:10;;;;;;;10.35;9.45;;;;;;;22.07;59.46;99787.78;5037372;28;20414;-69
2022/09/27 11:43:04;;;;;;;9.23;8.40;;;;;;;22.11;59.26;99787.00;5022316;28;20393;-69
2022/09/27 11:45:36;;;;;;;9.35;8.50;;;;;;;22.11;58.79;99778.91;5019413;28;20449;-69
2022/09/27 11:48:21;;;;;;;9.50;8.50;;;;;;;22.13;59.00;99770.53;5024618;28;20399;-70
2022/09/27 11:50:57;;;;;;;10.32;9.43;;;;;;;22.14;59.47;99782.94;5026283;28;20396;-68
2022/09/27 11:53:47;;;;;;;9.70;8.80;;;;;;;22.01;59.27;99772.69;5025346;28;20486;-68
2022/09/27 11:56:34;;;;;;;11.30;9.60;;;;;;;21.93;59.81;99765.91;5026285;28;20454;-68
2022/09/27 11:59:30;;;;;;;10.52;9.65;;;;;;;22.01;59.95;99762.69;5025477;28;20384;-66
2022/09/27 12:02:13;;;;;;;9.88;8.95;;;;;;;22.04;59.91;99750.53;5026011;28;20384;-67
2022/09/27 12:05:12;;;;;;;9.38;8.48;;;;;;;21.96;59.80;99738.41;5026384;28;20462;-68
2022/09/27 12:07:47;;;;;;;9.35;8.55;;;;;;;21.95;59.84;99734.91;5015061;28;20483;-68
2022/09/27 12:10:15;;;;;;;9.60;8.43;;;;;;;22.03;59.87;99747.03;5024398;28;20383;-68
2022/09/27 12:12:45;;;;;;;8.87;8.07;;;;;;;22.02;59.54;99741.91;5025986;28;20445;-68
2022/09/27 12:15:20;;;;;;;9.05;8.15;;;;;;;21.98;59.97;99738.13;5025938;28;20429;-68
2022/09/27 12:17:49;;;;;;;8.85;7.95;;;;;;;22.12;60.38;99734.63;5034434;28;20382;-68
2022/09/27 12:20:22;;;;;;;7.77;7.10;;;;;;;22.22;59.93;99716.78;5030385;28;20387;-68
2022/09/27 12:23:19;;;;;;;8.27;7.55;;;;;;;22.27;59.66;99708.72;5026012;28;20387;-68
2022/09/27 12:25:51;;;;;;;7.88;7.18;;;;;;;22.32;59.32;99708.72;5024732;28;20422;-68
2022/09/27 12:28:35;;;;;;;8.35;7.60;;;;;;;22.31;58.95;99710.63;5025715;28;20403;-68
2022/09/27 12:31:28;;;;;;;7.97;7.18;;;;;;;22.29;59.01;99718.19;5012358;28;20447;-68
2022/09/27 12:34:00;;;;;;;7.53;6.88;;;;;;;22.25;58.52;99711.66;5026670;28;20403;-68
2022/09/27 12:36:34;;;;;;;7.60;6.90;;;;;;;22.47;58.53;99708.69;5035730;28;20787;-68
2022/09/27 12:39:03;;;;;;;7.10;6.50;;;;;;;22.38;58.86;99713.00;5019744;28;20784;-68
2022/09/27 12:41:34;;;;;;;7.35;6.38;;;;;;;22.41;58.77;99704.38;5026865;28;20472;-69
2022/09/27 12:44:01;;;;;;;8.57;6.80;;;;;;;22.62;58.75;99682.72;5033061;28;20513;-68
2022/09/27 12:46:52;;;;;;;6.32;5.72;;;;;;;22.70;57.97;99671.34;5039596;28;20378;-67
2022/09/27 12:49:30;;;;;;;7.00;6.40;;;;;;;22.66;57.78;99681.09;5012214;28;20400;-67